sensor_id;sensor_type;location;lat;lon;timestamp;temperature;humidity
40996;DHT22;26723;57.478;12.066;2023-12-07T00:02:40;-0.50;99.90
40996;DHT22;26723;57.478;12.066;2023-12-07T00:05:49;-0.50;99.90
40996;DHT22;26723;57.478;12.066;2023-12-07T00:08:58;-0.50;99.90
40996;DHT22;26723;57.478;12.066;2023-12-07T00:12:08;-0.50;99.90
40996;DHT22;26723;57.478;12.066;2023-12-07T00:15:17;-0.50;99.90
40996;DHT22;26723;57.478;12.066;2023-12-07T00:18:26;-0.50;99.90
40996;DHT22;26723;57.478;12.066;2023-12-07T00:21:35;-0.50;99.90
40996;DHT22;26723;57.478;12.066;2023-12-07T00:24:44;-0.50;99.90
40996;DHT22;26723;57.478;12.066;2023-12-07T00:27:53;-0.50;99.90
40996;DHT22;26723;57.478;12.066;2023-12-07T00:31:01;-0.60;99.90
40996;DHT22;26723;57.478;12.066;2023-12-07T00:34:11;-0.50;99.90
40996;DHT22;26723;57.478;12.066;2023-12-07T00:37:20;-0.50;99.90
40996;DHT22;26723;57.478;12.066;2023-12-07T00:40:29;-0.50;99.90
40996;DHT22;26723;57.478;12.066;2023-12-07T00:43:37;-0.50;99.90
40996;DHT22;26723;57.478;12.066;2023-12-07T00:46:46;-0.60;99.90
40996;DHT22;26723;57.478;12.066;2023-12-07T00:49:56;-0.50;99.90
40996;DHT22;26723;57.478;12.066;2023-12-07T00:53:04;-0.60;99.90
40996;DHT22;26723;57.478;12.066;2023-12-07T00:56:13;-0.60;99.90
40996;DHT22;26723;57.478;12.066;2023-12-07T00:59:22;-0.70;99.90
40996;DHT22;26723;57.478;12.066;2023-12-07T01:02:31;-0.70;99.90
40996;DHT22;26723;57.478;12.066;2023-12-07T01:05:41;-0.70;99.90
40996;DHT22;26723;57.478;12.066;2023-12-07T01:08:49;-0.60;99.90
40996;DHT22;26723;57.478;12.066;2023-12-07T01:11:58;-0.70;99.90
40996;DHT22;26723;57.478;12.066;2023-12-07T01:15:07;-0.60;99.90
40996;DHT22;26723;57.478;12.066;2023-12-07T01:18:16;-0.70;99.90
40996;DHT22;26723;57.478;12.066;2023-12-07T01:21:26;-0.70;99.90
40996;DHT22;26723;57.478;12.066;2023-12-07T01:24:34;-0.60;99.90
40996;DHT22;26723;57.478;12.066;2023-12-07T01:27:43;-0.60;99.90
40996;DHT22;26723;57.478;12.066;2023-12-07T01:30:51;-0.60;99.90
40996;DHT22;26723;57.478;12.066;2023-12-07T01:34:00;-0.60;99.90
40996;DHT22;26723;57.478;12.066;2023-12-07T01:37:10;-0.60;99.90
40996;DHT22;26723;57.478;12.066;2023-12-07T01:40:19;-0.60;99.90
40996;DHT22;26723;57.478;12.066;2023-12-07T01:43:27;-0.60;99.90
40996;DHT22;26723;57.478;12.066;2023-12-07T01:46:37;-0.60;99.90
40996;DHT22;26723;57.478;12.066;2023-12-07T01:49:45;-0.70;99.90
40996;DHT22;26723;57.478;12.066;2023-12-07T01:53:01;-0.70;99.90
40996;DHT22;26723;57.478;12.066;2023-12-07T01:56:13;-0.70;99.90
40996;DHT22;26723;57.478;12.066;2023-12-07T01:59:23;-0.70;99.90
40996;DHT22;26723;57.478;12.066;2023-12-07T02:02:32;-0.80;99.90
40996;DHT22;26723;57.478;12.066;2023-12-07T02:05:43;-0.70;99.90
40996;DHT22;26723;57.478;12.066;2023-12-07T02:08:53;-0.70;99.90
40996;DHT22;26723;57.478;12.066;2023-12-07T02:12:02;-0.70;99.90
40996;DHT22;26723;57.478;12.066;2023-12-07T02:15:12;-0.70;99.90
40996;DHT22;26723;57.478;12.066;2023-12-07T02:18:24;-0.80;99.90
40996;DHT22;26723;57.478;12.066;2023-12-07T02:21:38;-0.70;99.90
40996;DHT22;26723;57.478;12.066;2023-12-07T02:25:04;-0.70;99.90
40996;DHT22;26723;57.478;12.066;2023-12-07T02:28:16;-0.70;99.90
40996;DHT22;26723;57.478;12.066;2023-12-07T02:31:24;-0.70;99.90
40996;DHT22;26723;57.478;12.066;2023-12-07T02:34:33;-0.70;99.90
40996;DHT22;26723;57.478;12.066;2023-12-07T02:37:44;-0.70;99.90
40996;DHT22;26723;57.478;12.066;2023-12-07T02:40:54;-0.80;99.90
40996;DHT22;26723;57.478;12.066;2023-12-07T02:44:05;-0.80;99.90
40996;DHT22;26723;57.478;12.066;2023-12-07T02:47:14;-0.80;99.90
40996;DHT22;26723;57.478;12.066;2023-12-07T02:50:23;-0.70;99.90
40996;DHT22;26723;57.478;12.066;2023-12-07T02:53:32;-0.80;99.90
40996;DHT22;26723;57.478;12.066;2023-12-07T02:56:40;-0.80;99.90
40996;DHT22;26723;57.478;12.066;2023-12-07T02:59:50;-0.80;99.90
40996;DHT22;26723;57.478;12.066;2023-12-07T03:02:59;-0.70;99.90
40996;DHT22;26723;57.478;12.066;2023-12-07T03:06:08;-0.80;99.90
40996;DHT22;26723;57.478;12.066;2023-12-07T03:09:16;-0.80;99.90
40996;DHT22;26723;57.478;12.066;2023-12-07T03:12:25;-0.80;99.90
40996;DHT22;26723;57.478;12.066;2023-12-07T03:15:35;-0.80;99.90
40996;DHT22;26723;57.478;12.066;2023-12-07T03:18:43;-0.80;99.90
40996;DHT22;26723;57.478;12.066;2023-12-07T03:21:52;-0.80;99.90
40996;DHT22;26723;57.478;12.066;2023-12-07T03:25:00;-0.80;99.90
40996;DHT22;26723;57.478;12.066;2023-12-07T03:28:09;-0.70;99.90
40996;DHT22;26723;57.478;12.066;2023-12-07T03:31:19;-0.70;99.90
40996;DHT22;26723;57.478;12.066;2023-12-07T03:34:28;-0.80;99.90
40996;DHT22;26723;57.478;12.066;2023-12-07T03:37:36;-0.70;99.90
40996;DHT22;26723;57.478;12.066;2023-12-07T03:40:45;-0.70;99.90
40996;DHT22;26723;57.478;12.066;2023-12-07T03:43:55;-0.80;99.90
40996;DHT22;26723;57.478;12.066;2023-12-07T03:47:06;-0.70;99.90
40996;DHT22;26723;57.478;12.066;2023-12-07T03:50:14;-0.70;99.90
40996;DHT22;26723;57.478;12.066;2023-12-07T03:53:23;-0.70;99.90
40996;DHT22;26723;57.478;12.066;2023-12-07T03:56:33;-0.80;99.90
40996;DHT22;26723;57.478;12.066;2023-12-07T03:59:41;-0.80;99.90
40996;DHT22;26723;57.478;12.066;2023-12-07T04:02:51;-0.80;99.90
40996;DHT22;26723;57.478;12.066;2023-12-07T04:06:00;-0.80;99.90
40996;DHT22;26723;57.478;12.066;2023-12-07T04:09:09;-0.70;99.90
40996;DHT22;26723;57.478;12.066;2023-12-07T04:12:18;-0.80;99.90
40996;DHT22;26723;57.478;12.066;2023-12-07T04:15:27;-0.80;99.90
40996;DHT22;26723;57.478;12.066;2023-12-07T04:18:37;-0.80;99.90
40996;DHT22;26723;57.478;12.066;2023-12-07T04:21:45;-0.80;99.90
40996;DHT22;26723;57.478;12.066;2023-12-07T04:24:54;-0.80;99.90
40996;DHT22;26723;57.478;12.066;2023-12-07T04:28:03;-0.80;99.90
40996;DHT22;26723;57.478;12.066;2023-12-07T04:31:11;-0.70;99.90
40996;DHT22;26723;57.478;12.066;2023-12-07T04:34:21;-0.80;99.90
40996;DHT22;26723;57.478;12.066;2023-12-07T04:37:30;-0.70;99.90
40996;DHT22;26723;57.478;12.066;2023-12-07T04:40:39;-0.80;99.90
40996;DHT22;26723;57.478;12.066;2023-12-07T04:43:49;-0.70;99.90
40996;DHT22;26723;57.478;12.066;2023-12-07T04:46:58;-0.80;99.90
40996;DHT22;26723;57.478;12.066;2023-12-07T04:50:08;-0.80;99.90
40996;DHT22;26723;57.478;12.066;2023-12-07T04:53:17;-0.80;99.90
40996;DHT22;26723;57.478;12.066;2023-12-07T04:56:26;-0.70;99.90
40996;DHT22;26723;57.478;12.066;2023-12-07T04:59:35;-0.70;99.90
40996;DHT22;26723;57.478;12.066;2023-12-07T05:02:45;-0.70;99.90
40996;DHT22;26723;57.478;12.066;2023-12-07T05:05:56;-0.70;99.90
40996;DHT22;26723;57.478;12.066;2023-12-07T05:09:05;-0.70;99.90
40996;DHT22;26723;57.478;12.066;2023-12-07T05:12:16;-0.70;99.90
40996;DHT22;26723;57.478;12.066;2023-12-07T05:15:25;-0.70;99.90
40996;DHT22;26723;57.478;12.066;2023-12-07T05:18:33;-0.70;99.90
40996;DHT22;26723;57.478;12.066;2023-12-07T05:21:43;-0.70;99.90
40996;DHT22;26723;57.478;12.066;2023-12-07T05:24:52;-0.70;99.90
40996;DHT22;26723;57.478;12.066;2023-12-07T05:28:00;-0.70;99.90
40996;DHT22;26723;57.478;12.066;2023-12-07T05:31:16;-0.80;99.90
40996;DHT22;26723;57.478;12.066;2023-12-07T05:34:24;-0.70;99.90
40996;DHT22;26723;57.478;12.066;2023-12-07T05:37:34;-0.80;99.90
40996;DHT22;26723;57.478;12.066;2023-12-07T05:40:44;-0.70;99.90
40996;DHT22;26723;57.478;12.066;2023-12-07T05:43:53;-0.70;99.90
40996;DHT22;26723;57.478;12.066;2023-12-07T05:47:01;-0.70;99.90
40996;DHT22;26723;57.478;12.066;2023-12-07T05:50:10;-0.70;99.90
40996;DHT22;26723;57.478;12.066;2023-12-07T05:53:20;-0.80;99.90
40996;DHT22;26723;57.478;12.066;2023-12-07T05:56:28;-0.80;99.90
40996;DHT22;26723;57.478;12.066;2023-12-07T05:59:38;-0.80;99.90
40996;DHT22;26723;57.478;12.066;2023-12-07T06:02:47;-0.80;99.90
40996;DHT22;26723;57.478;12.066;2023-12-07T06:05:56;-0.80;99.90
40996;DHT22;26723;57.478;12.066;2023-12-07T06:09:06;-0.70;99.90
40996;DHT22;26723;57.478;12.066;2023-12-07T06:12:15;-0.80;99.90
40996;DHT22;26723;57.478;12.066;2023-12-07T06:15:24;-0.70;99.90
40996;DHT22;26723;57.478;12.066;2023-12-07T06:18:33;-0.70;99.90
40996;DHT22;26723;57.478;12.066;2023-12-07T06:21:43;-0.70;99.90
40996;DHT22;26723;57.478;12.066;2023-12-07T06:24:53;-0.70;99.90
40996;DHT22;26723;57.478;12.066;2023-12-07T06:28:02;-0.80;99.90
40996;DHT22;26723;57.478;12.066;2023-12-07T06:31:11;-0.80;99.90
40996;DHT22;26723;57.478;12.066;2023-12-07T06:34:22;-0.80;99.90
40996;DHT22;26723;57.478;12.066;2023-12-07T06:37:30;-0.70;99.90
40996;DHT22;26723;57.478;12.066;2023-12-07T06:40:41;-0.80;99.90
40996;DHT22;26723;57.478;12.066;2023-12-07T06:43:51;-0.80;99.90
40996;DHT22;26723;57.478;12.066;2023-12-07T06:47:03;-0.70;99.90
40996;DHT22;26723;57.478;12.066;2023-12-07T06:50:11;-0.80;99.90
40996;DHT22;26723;57.478;12.066;2023-12-07T06:53:20;-0.70;99.90
40996;DHT22;26723;57.478;12.066;2023-12-07T06:56:30;-0.70;99.90
40996;DHT22;26723;57.478;12.066;2023-12-07T06:59:39;-0.80;99.90
40996;DHT22;26723;57.478;12.066;2023-12-07T07:02:48;-0.80;99.90
40996;DHT22;26723;57.478;12.066;2023-12-07T07:05:56;-0.70;99.90
40996;DHT22;26723;57.478;12.066;2023-12-07T07:09:06;-0.70;99.90
40996;DHT22;26723;57.478;12.066;2023-12-07T07:12:16;-0.70;99.90
40996;DHT22;26723;57.478;12.066;2023-12-07T07:15:25;-0.70;99.90
40996;DHT22;26723;57.478;12.066;2023-12-07T07:18:34;-0.70;99.90
40996;DHT22;26723;57.478;12.066;2023-12-07T07:21:43;-0.70;99.90
40996;DHT22;26723;57.478;12.066;2023-12-07T07:24:52;-0.70;99.90
40996;DHT22;26723;57.478;12.066;2023-12-07T07:28:03;-0.70;99.90
40996;DHT22;26723;57.478;12.066;2023-12-07T07:31:12;-0.70;99.90
40996;DHT22;26723;57.478;12.066;2023-12-07T07:34:20;-0.70;99.90
40996;DHT22;26723;57.478;12.066;2023-12-07T07:37:29;-0.70;99.90
40996;DHT22;26723;57.478;12.066;2023-12-07T07:40:38;-0.60;99.90
40996;DHT22;26723;57.478;12.066;2023-12-07T07:43:48;-0.60;99.90
40996;DHT22;26723;57.478;12.066;2023-12-07T07:46:57;-0.60;99.90
40996;DHT22;26723;57.478;12.066;2023-12-07T07:50:06;-0.60;99.90
40996;DHT22;26723;57.478;12.066;2023-12-07T07:53:15;-0.60;99.90
40996;DHT22;26723;57.478;12.066;2023-12-07T07:56:24;-0.70;99.90
40996;DHT22;26723;57.478;12.066;2023-12-07T07:59:34;-0.60;99.90
40996;DHT22;26723;57.478;12.066;2023-12-07T08:02:42;-0.60;99.90
40996;DHT22;26723;57.478;12.066;2023-12-07T08:05:51;-0.60;99.90
40996;DHT22;26723;57.478;12.066;2023-12-07T08:08:59;-0.50;99.90
40996;DHT22;26723;57.478;12.066;2023-12-07T08:12:08;-0.50;99.90
40996;DHT22;26723;57.478;12.066;2023-12-07T08:15:18;-0.50;99.90
40996;DHT22;26723;57.478;12.066;2023-12-07T08:18:29;-0.50;99.90
40996;DHT22;26723;57.478;12.066;2023-12-07T08:21:37;-0.50;99.90
40996;DHT22;26723;57.478;12.066;2023-12-07T08:24:46;-0.50;99.90
40996;DHT22;26723;57.478;12.066;2023-12-07T08:28:07;-0.50;99.90
40996;DHT22;26723;57.478;12.066;2023-12-07T08:31:18;-0.40;99.90
40996;DHT22;26723;57.478;12.066;2023-12-07T08:34:27;-0.40;99.90
40996;DHT22;26723;57.478;12.066;2023-12-07T08:37:37;-0.40;99.90
40996;DHT22;26723;57.478;12.066;2023-12-07T08:40:46;-0.40;99.90
40996;DHT22;26723;57.478;12.066;2023-12-07T08:43:55;-0.40;99.90
40996;DHT22;26723;57.478;12.066;2023-12-07T08:47:05;-0.50;99.90
40996;DHT22;26723;57.478;12.066;2023-12-07T08:50:13;-0.50;99.90
40996;DHT22;26723;57.478;12.066;2023-12-07T08:53:22;-0.40;99.90
40996;DHT22;26723;57.478;12.066;2023-12-07T08:56:30;-0.30;99.90
40996;DHT22;26723;57.478;12.066;2023-12-07T08:59:39;-0.40;99.90
40996;DHT22;26723;57.478;12.066;2023-12-07T09:02:49;-0.30;99.90
40996;DHT22;26723;57.478;12.066;2023-12-07T09:05:59;-0.30;99.90
40996;DHT22;26723;57.478;12.066;2023-12-07T09:09:08;-0.30;99.90
40996;DHT22;26723;57.478;12.066;2023-12-07T09:12:19;-0.30;99.90
40996;DHT22;26723;57.478;12.066;2023-12-07T09:15:37;-0.20;99.90
40996;DHT22;26723;57.478;12.066;2023-12-07T09:18:47;-0.20;99.90
40996;DHT22;26723;57.478;12.066;2023-12-07T09:21:56;-0.10;99.90
40996;DHT22;26723;57.478;12.066;2023-12-07T09:25:06;-0.10;99.90
40996;DHT22;26723;57.478;12.066;2023-12-07T09:28:15;0.00;99.90
40996;DHT22;26723;57.478;12.066;2023-12-07T09:31:24;0.00;99.90
40996;DHT22;26723;57.478;12.066;2023-12-07T09:34:34;0.20;99.90
40996;DHT22;26723;57.478;12.066;2023-12-07T09:37:43;0.20;99.90
40996;DHT22;26723;57.478;12.066;2023-12-07T09:40:53;0.50;99.90
40996;DHT22;26723;57.478;12.066;2023-12-07T09:44:02;0.40;99.90
40996;DHT22;26723;57.478;12.066;2023-12-07T09:47:12;0.60;99.90
40996;DHT22;26723;57.478;12.066;2023-12-07T09:50:26;0.50;99.90
40996;DHT22;26723;57.478;12.066;2023-12-07T09:53:35;0.50;99.90
40996;DHT22;26723;57.478;12.066;2023-12-07T09:56:46;0.50;99.90
40996;DHT22;26723;57.478;12.066;2023-12-07T09:59:55;0.50;99.90
40996;DHT22;26723;57.478;12.066;2023-12-07T10:03:04;0.50;99.90
40996;DHT22;26723;57.478;12.066;2023-12-07T10:06:17;0.50;99.90
40996;DHT22;26723;57.478;12.066;2023-12-07T10:09:26;0.60;99.90
40996;DHT22;26723;57.478;12.066;2023-12-07T10:12:45;0.60;99.90
40996;DHT22;26723;57.478;12.066;2023-12-07T10:16:05;0.60;99.90
40996;DHT22;26723;57.478;12.066;2023-12-07T10:19:16;0.60;99.90
40996;DHT22;26723;57.478;12.066;2023-12-07T10:22:40;0.60;99.90
40996;DHT22;26723;57.478;12.066;2023-12-07T10:25:49;0.60;99.90
40996;DHT22;26723;57.478;12.066;2023-12-07T10:28:58;0.60;99.90
40996;DHT22;26723;57.478;12.066;2023-12-07T10:32:06;0.70;99.90
40996;DHT22;26723;57.478;12.066;2023-12-07T10:35:15;0.70;99.90
40996;DHT22;26723;57.478;12.066;2023-12-07T10:38:26;0.70;99.90
40996;DHT22;26723;57.478;12.066;2023-12-07T10:41:34;0.70;99.90
40996;DHT22;26723;57.478;12.066;2023-12-07T10:44:49;0.70;99.90
40996;DHT22;26723;57.478;12.066;2023-12-07T10:48:02;0.70;99.90
40996;DHT22;26723;57.478;12.066;2023-12-07T10:51:31;0.80;99.90
40996;DHT22;26723;57.478;12.066;2023-12-07T10:54:50;0.80;99.90
40996;DHT22;26723;57.478;12.066;2023-12-07T10:57:59;0.90;99.90
40996;DHT22;26723;57.478;12.066;2023-12-07T11:01:09;0.80;99.90
40996;DHT22;26723;57.478;12.066;2023-12-07T11:04:19;0.80;99.90
40996;DHT22;26723;57.478;12.066;2023-12-07T11:07:36;0.80;99.90
40996;DHT22;26723;57.478;12.066;2023-12-07T11:10:53;0.80;99.90
40996;DHT22;26723;57.478;12.066;2023-12-07T11:14:05;0.80;99.90
40996;DHT22;26723;57.478;12.066;2023-12-07T11:17:15;0.80;99.90
40996;DHT22;26723;57.478;12.066;2023-12-07T11:20:32;0.80;99.90
40996;DHT22;26723;57.478;12.066;2023-12-07T11:23:48;0.90;99.90
40996;DHT22;26723;57.478;12.066;2023-12-07T11:26:58;0.90;99.90
40996;DHT22;26723;57.478;12.066;2023-12-07T11:30:08;0.70;99.90
40996;DHT22;26723;57.478;12.066;2023-12-07T11:33:19;0.70;99.90
40996;DHT22;26723;57.478;12.066;2023-12-07T11:36:28;0.70;99.90
40996;DHT22;26723;57.478;12.066;2023-12-07T11:39:39;0.80;99.90
40996;DHT22;26723;57.478;12.066;2023-12-07T11:42:52;0.80;99.90
40996;DHT22;26723;57.478;12.066;2023-12-07T11:46:01;0.80;99.90
40996;DHT22;26723;57.478;12.066;2023-12-07T11:49:11;0.70;99.90
40996;DHT22;26723;57.478;12.066;2023-12-07T11:52:34;0.80;99.90
40996;DHT22;26723;57.478;12.066;2023-12-07T11:55:43;0.80;99.90
40996;DHT22;26723;57.478;12.066;2023-12-07T11:58:53;0.90;99.90
40996;DHT22;26723;57.478;12.066;2023-12-07T12:02:03;0.90;99.90
40996;DHT22;26723;57.478;12.066;2023-12-07T12:05:12;0.90;99.90
40996;DHT22;26723;57.478;12.066;2023-12-07T12:08:21;0.90;99.90
40996;DHT22;26723;57.478;12.066;2023-12-07T12:11:30;0.90;99.90
40996;DHT22;26723;57.478;12.066;2023-12-07T12:14:43;0.90;99.90
40996;DHT22;26723;57.478;12.066;2023-12-07T12:17:52;0.90;99.90
40996;DHT22;26723;57.478;12.066;2023-12-07T12:21:01;0.90;99.90
40996;DHT22;26723;57.478;12.066;2023-12-07T12:24:10;1.00;99.90
40996;DHT22;26723;57.478;12.066;2023-12-07T12:27:19;1.00;99.90
40996;DHT22;26723;57.478;12.066;2023-12-07T12:30:30;1.10;99.90
40996;DHT22;26723;57.478;12.066;2023-12-07T12:33:39;1.00;99.90
40996;DHT22;26723;57.478;12.066;2023-12-07T12:36:48;1.00;99.90
40996;DHT22;26723;57.478;12.066;2023-12-07T12:39:57;1.00;99.90
40996;DHT22;26723;57.478;12.066;2023-12-07T12:43:10;1.00;99.90
40996;DHT22;26723;57.478;12.066;2023-12-07T12:46:20;1.00;99.90
40996;DHT22;26723;57.478;12.066;2023-12-07T12:49:35;1.00;99.90
40996;DHT22;26723;57.478;12.066;2023-12-07T12:52:44;1.00;99.90
40996;DHT22;26723;57.478;12.066;2023-12-07T12:55:53;1.00;99.90
40996;DHT22;26723;57.478;12.066;2023-12-07T12:59:01;1.00;99.90
40996;DHT22;26723;57.478;12.066;2023-12-07T13:02:14;1.10;99.90
40996;DHT22;26723;57.478;12.066;2023-12-07T13:05:23;1.10;99.90
40996;DHT22;26723;57.478;12.066;2023-12-07T13:08:32;1.00;99.90
40996;DHT22;26723;57.478;12.066;2023-12-07T13:11:41;1.10;99.90
40996;DHT22;26723;57.478;12.066;2023-12-07T13:14:49;1.10;99.90
40996;DHT22;26723;57.478;12.066;2023-12-07T13:17:59;1.10;99.90
40996;DHT22;26723;57.478;12.066;2023-12-07T13:21:12;1.10;99.90
40996;DHT22;26723;57.478;12.066;2023-12-07T13:24:23;1.10;99.90
40996;DHT22;26723;57.478;12.066;2023-12-07T13:27:32;1.10;99.90
40996;DHT22;26723;57.478;12.066;2023-12-07T13:30:41;1.10;99.90
40996;DHT22;26723;57.478;12.066;2023-12-07T13:33:51;1.10;99.90
40996;DHT22;26723;57.478;12.066;2023-12-07T13:37:05;1.20;99.90
40996;DHT22;26723;57.478;12.066;2023-12-07T13:40:13;1.20;99.90
40996;DHT22;26723;57.478;12.066;2023-12-07T13:43:22;1.20;99.90
40996;DHT22;26723;57.478;12.066;2023-12-07T13:46:31;1.20;99.90
40996;DHT22;26723;57.478;12.066;2023-12-07T13:49:41;1.20;99.90
40996;DHT22;26723;57.478;12.066;2023-12-07T13:52:50;1.10;99.90
40996;DHT22;26723;57.478;12.066;2023-12-07T13:55:59;1.10;99.90
40996;DHT22;26723;57.478;12.066;2023-12-07T13:59:07;1.10;99.90
40996;DHT22;26723;57.478;12.066;2023-12-07T14:02:19;1.00;99.90
40996;DHT22;26723;57.478;12.066;2023-12-07T14:05:29;1.00;99.90
40996;DHT22;26723;57.478;12.066;2023-12-07T14:08:38;0.90;99.90
40996;DHT22;26723;57.478;12.066;2023-12-07T14:11:46;0.80;99.90
40996;DHT22;26723;57.478;12.066;2023-12-07T14:14:55;0.80;99.90
40996;DHT22;26723;57.478;12.066;2023-12-07T14:18:04;0.70;99.90
40996;DHT22;26723;57.478;12.066;2023-12-07T14:21:19;0.60;99.90
40996;DHT22;26723;57.478;12.066;2023-12-07T14:24:40;0.60;99.90
40996;DHT22;26723;57.478;12.066;2023-12-07T14:27:48;0.60;99.90
40996;DHT22;26723;57.478;12.066;2023-12-07T14:30:57;0.60;99.90
40996;DHT22;26723;57.478;12.066;2023-12-07T14:34:06;0.50;99.90
40996;DHT22;26723;57.478;12.066;2023-12-07T14:37:20;0.50;99.90
40996;DHT22;26723;57.478;12.066;2023-12-07T14:40:29;0.50;99.90
40996;DHT22;26723;57.478;12.066;2023-12-07T14:43:38;0.50;99.90
40996;DHT22;26723;57.478;12.066;2023-12-07T14:46:47;0.50;99.90
40996;DHT22;26723;57.478;12.066;2023-12-07T14:49:56;0.40;99.90
40996;DHT22;26723;57.478;12.066;2023-12-07T14:53:08;0.50;99.90
40996;DHT22;26723;57.478;12.066;2023-12-07T14:56:17;0.50;99.90
40996;DHT22;26723;57.478;12.066;2023-12-07T14:59:29;0.50;99.90
40996;DHT22;26723;57.478;12.066;2023-12-07T15:02:37;0.50;99.90
40996;DHT22;26723;57.478;12.066;2023-12-07T15:05:46;0.50;99.90
40996;DHT22;26723;57.478;12.066;2023-12-07T15:08:57;0.50;99.90
40996;DHT22;26723;57.478;12.066;2023-12-07T15:12:06;0.50;99.90
40996;DHT22;26723;57.478;12.066;2023-12-07T15:15:15;0.50;99.90
40996;DHT22;26723;57.478;12.066;2023-12-07T15:18:23;0.50;99.90
40996;DHT22;26723;57.478;12.066;2023-12-07T15:21:32;0.50;99.90
40996;DHT22;26723;57.478;12.066;2023-12-07T15:24:42;0.50;99.90
40996;DHT22;26723;57.478;12.066;2023-12-07T15:27:51;0.40;99.90
40996;DHT22;26723;57.478;12.066;2023-12-07T15:30:59;0.40;99.90
40996;DHT22;26723;57.478;12.066;2023-12-07T15:34:10;0.50;99.90
40996;DHT22;26723;57.478;12.066;2023-12-07T15:37:36;0.50;99.90
40996;DHT22;26723;57.478;12.066;2023-12-07T15:41:02;0.50;99.90
40996;DHT22;26723;57.478;12.066;2023-12-07T15:44:19;0.50;99.90
40996;DHT22;26723;57.478;12.066;2023-12-07T15:47:37;0.50;99.90
40996;DHT22;26723;57.478;12.066;2023-12-07T15:50:48;0.50;99.90
40996;DHT22;26723;57.478;12.066;2023-12-07T15:54:11;0.60;99.90
40996;DHT22;26723;57.478;12.066;2023-12-07T15:57:43;0.50;99.90
40996;DHT22;26723;57.478;12.066;2023-12-07T16:00:57;0.50;99.90
40996;DHT22;26723;57.478;12.066;2023-12-07T16:04:13;0.50;99.90
40996;DHT22;26723;57.478;12.066;2023-12-07T16:07:36;0.50;99.90
40996;DHT22;26723;57.478;12.066;2023-12-07T16:10:50;0.50;99.90
40996;DHT22;26723;57.478;12.066;2023-12-07T16:14:02;0.50;99.90
40996;DHT22;26723;57.478;12.066;2023-12-07T16:17:12;0.50;99.90
40996;DHT22;26723;57.478;12.066;2023-12-07T16:20:24;0.50;99.90
40996;DHT22;26723;57.478;12.066;2023-12-07T16:23:36;0.50;99.90
40996;DHT22;26723;57.478;12.066;2023-12-07T16:26:48;0.50;99.90
40996;DHT22;26723;57.478;12.066;2023-12-07T16:30:02;0.40;99.90
40996;DHT22;26723;57.478;12.066;2023-12-07T16:33:15;0.40;99.90
40996;DHT22;26723;57.478;12.066;2023-12-07T16:36:26;0.50;99.90
40996;DHT22;26723;57.478;12.066;2023-12-07T16:39:42;0.50;99.90
40996;DHT22;26723;57.478;12.066;2023-12-07T16:42:53;0.40;99.90
40996;DHT22;26723;57.478;12.066;2023-12-07T16:46:08;0.40;99.90
40996;DHT22;26723;57.478;12.066;2023-12-07T16:49:21;0.40;99.90
40996;DHT22;26723;57.478;12.066;2023-12-07T16:52:32;0.50;99.90
40996;DHT22;26723;57.478;12.066;2023-12-07T16:55:55;0.50;99.90
40996;DHT22;26723;57.478;12.066;2023-12-07T16:59:12;0.50;99.90
40996;DHT22;26723;57.478;12.066;2023-12-07T17:02:29;0.60;99.90
40996;DHT22;26723;57.478;12.066;2023-12-07T17:05:41;0.60;99.90
40996;DHT22;26723;57.478;12.066;2023-12-07T17:08:55;0.50;99.90
40996;DHT22;26723;57.478;12.066;2023-12-07T17:12:20;0.50;99.90
40996;DHT22;26723;57.478;12.066;2023-12-07T17:15:31;0.50;99.90
40996;DHT22;26723;57.478;12.066;2023-12-07T17:18:45;0.60;99.90
40996;DHT22;26723;57.478;12.066;2023-12-07T17:21:58;0.60;99.90
40996;DHT22;26723;57.478;12.066;2023-12-07T17:25:09;0.60;99.90
40996;DHT22;26723;57.478;12.066;2023-12-07T17:28:19;0.60;99.90
40996;DHT22;26723;57.478;12.066;2023-12-07T17:31:27;0.60;99.90
40996;DHT22;26723;57.478;12.066;2023-12-07T17:34:37;0.60;99.90
40996;DHT22;26723;57.478;12.066;2023-12-07T17:37:48;0.60;99.90
40996;DHT22;26723;57.478;12.066;2023-12-07T17:40:57;0.60;99.90
40996;DHT22;26723;57.478;12.066;2023-12-07T17:44:05;0.60;99.90
40996;DHT22;26723;57.478;12.066;2023-12-07T17:47:14;0.60;99.90
40996;DHT22;26723;57.478;12.066;2023-12-07T17:50:24;0.60;99.90
40996;DHT22;26723;57.478;12.066;2023-12-07T17:53:33;0.60;99.90
40996;DHT22;26723;57.478;12.066;2023-12-07T17:56:41;0.50;99.90
40996;DHT22;26723;57.478;12.066;2023-12-07T17:59:50;0.50;99.90
40996;DHT22;26723;57.478;12.066;2023-12-07T18:02:59;0.50;99.90
40996;DHT22;26723;57.478;12.066;2023-12-07T18:06:10;0.60;99.90
40996;DHT22;26723;57.478;12.066;2023-12-07T18:09:18;0.60;99.90
40996;DHT22;26723;57.478;12.066;2023-12-07T18:12:27;0.50;99.90
40996;DHT22;26723;57.478;12.066;2023-12-07T18:15:36;0.50;99.90
40996;DHT22;26723;57.478;12.066;2023-12-07T18:18:44;0.50;99.90
40996;DHT22;26723;57.478;12.066;2023-12-07T18:21:54;0.60;99.90
40996;DHT22;26723;57.478;12.066;2023-12-07T18:25:03;0.60;99.90
40996;DHT22;26723;57.478;12.066;2023-12-07T18:28:12;0.50;99.90
40996;DHT22;26723;57.478;12.066;2023-12-07T18:31:22;0.60;99.90
40996;DHT22;26723;57.478;12.066;2023-12-07T18:34:31;0.60;99.90
40996;DHT22;26723;57.478;12.066;2023-12-07T18:37:41;0.60;99.90
40996;DHT22;26723;57.478;12.066;2023-12-07T18:40:50;0.60;99.90
40996;DHT22;26723;57.478;12.066;2023-12-07T18:43:58;0.50;99.90
40996;DHT22;26723;57.478;12.066;2023-12-07T18:47:07;0.50;99.90
40996;DHT22;26723;57.478;12.066;2023-12-07T18:50:17;0.50;99.90
40996;DHT22;26723;57.478;12.066;2023-12-07T18:53:27;0.50;99.90
40996;DHT22;26723;57.478;12.066;2023-12-07T18:56:35;0.50;99.90
40996;DHT22;26723;57.478;12.066;2023-12-07T18:59:44;0.50;99.90
40996;DHT22;26723;57.478;12.066;2023-12-07T19:02:53;0.50;99.90
40996;DHT22;26723;57.478;12.066;2023-12-07T19:06:02;0.50;99.90
40996;DHT22;26723;57.478;12.066;2023-12-07T19:09:12;0.50;99.90
40996;DHT22;26723;57.478;12.066;2023-12-07T19:12:24;0.50;99.90
40996;DHT22;26723;57.478;12.066;2023-12-07T19:15:33;0.40;99.90
40996;DHT22;26723;57.478;12.066;2023-12-07T19:18:43;0.40;99.90
40996;DHT22;26723;57.478;12.066;2023-12-07T19:21:53;0.40;99.90
40996;DHT22;26723;57.478;12.066;2023-12-07T19:25:04;0.40;99.90
40996;DHT22;26723;57.478;12.066;2023-12-07T19:28:13;0.30;99.90
40996;DHT22;26723;57.478;12.066;2023-12-07T19:31:21;0.40;99.90
40996;DHT22;26723;57.478;12.066;2023-12-07T19:34:33;0.30;99.90
40996;DHT22;26723;57.478;12.066;2023-12-07T19:37:41;0.30;99.90
40996;DHT22;26723;57.478;12.066;2023-12-07T19:40:52;0.30;99.90
40996;DHT22;26723;57.478;12.066;2023-12-07T19:44:01;0.40;99.90
40996;DHT22;26723;57.478;12.066;2023-12-07T19:47:10;0.40;99.90
40996;DHT22;26723;57.478;12.066;2023-12-07T19:50:19;0.30;99.90
40996;DHT22;26723;57.478;12.066;2023-12-07T19:53:27;0.30;99.90
40996;DHT22;26723;57.478;12.066;2023-12-07T19:56:37;0.20;99.90